Terminal Aerodrome Forecast
Issued by NWS

Home | Current Version | Previous Version | Graphics & Text | Print | Product List | Glossary On
Versions: 1 2 3 4 5 6 7 8 9 10 11 12 13 14 15 16 17 18 19 20 21 22
000
FTUS43 KBIS 282300
TAFMOT
TAF
KMOT 282334Z 2900/2924 04010KT P6SM BKN009 OVC015
     FM290500 05009KT 4SM BR SCT004 OVC007
     FM291800 10012KT P6SM SCT007 BKN015=

USA.gov is the U.S. government's official web portal to all federal, state and local government web resources and services.